Time;durP1;ratioP1;P1;durP2;ratioP2;P2;SDS_P1;SDS_P2;PMS_P1;PMS_P2;Temp;Humidity;BMP_temperature;BMP_pressure;BME280_temperature;BME280_humidity;BME280_pressure;Samples;Min_cycle;Max_cycle;Signal;HPM_P1;HPM_P2
2021/01/25 00:02:28;;;;;;;9.30;7.10;;;;;;;5.42;100.00;99033.47;1743284;82;21575;-66
2021/01/25 00:04:57;;;;;;;8.13;7.17;;;;;;;5.43;100.00;99033.85;1743326;82;21566;-67
2021/01/25 00:07:25;;;;;;;10.38;8.30;;;;;;;5.44;100.00;99036.81;1743312;81;22167;-66
2021/01/25 00:09:55;;;;;;;10.08;7.78;;;;;;;5.45;100.00;99037.64;1743289;82;21009;-67
2021/01/25 00:12:24;;;;;;;10.18;8.50;;;;;;;5.44;100.00;99030.36;1743347;82;21491;-66
2021/01/25 00:14:57;;;;;;;9.85;7.33;;;;;;;5.44;100.00;99041.14;1743271;82;20933;-67
2021/01/25 00:17:27;;;;;;;8.50;7.60;;;;;;;5.43;100.00;99040.30;1743324;81;21009;-66
2021/01/25 00:19:55;;;;;;;10.75;8.00;;;;;;;5.41;100.00;99028.38;1743234;82;21204;-67
2021/01/25 00:22:25;;;;;;;9.73;7.37;;;;;;;5.39;100.00;99023.30;1743265;82;21464;-66
2021/01/25 00:24:54;;;;;;;10.08;7.65;;;;;;;5.36;100.00;99015.25;1743334;82;20945;-66
2021/01/25 00:27:22;;;;;;;11.75;8.28;;;;;;;5.36;100.00;99013.96;1741971;82;20963;-67
2021/01/25 00:29:50;;;;;;;10.75;7.75;;;;;;;5.35;100.00;99012.30;1749967;82;21492;-67
2021/01/25 00:32:19;;;;;;;14.03;8.30;;;;;;;5.34;100.00;98999.01;1741715;82;22292;-67
2021/01/25 00:34:47;;;;;;;10.93;7.55;;;;;;;5.34;100.00;98994.30;1749821;82;21002;-67
2021/01/25 00:37:16;;;;;;;8.48;7.15;;;;;;;5.31;100.00;98990.13;1741670;82;21580;-66
2021/01/25 00:39:45;;;;;;;10.45;7.67;;;;;;;5.31;100.00;99000.45;1749830;82;21650;-67
2021/01/25 00:42:14;;;;;;;11.50;7.50;;;;;;;5.30;100.00;98996.20;1741700;82;21492;-66
2021/01/25 00:44:42;;;;;;;11.53;8.00;;;;;;;5.31;100.00;99000.91;1749876;82;21996;-66
2021/01/25 00:47:11;;;;;;;9.78;7.50;;;;;;;5.28;100.00;98999.77;1741605;82;21528;-67
2021/01/25 00:49:39;;;;;;;12.93;8.30;;;;;;;5.28;100.00;99001.90;1749910;82;21489;-67
2021/01/25 00:52:08;;;;;;;10.60;7.60;;;;;;;5.28;100.00;99000.61;1741645;82;21596;-67
2021/01/25 00:54:36;;;;;;;10.80;7.55;;;;;;;5.29;100.00;99000.15;1749915;82;21612;-66
2021/01/25 00:57:05;;;;;;;11.90;8.50;;;;;;;5.29;100.00;99004.02;1741670;82;21587;-67
2021/01/25 00:59:34;;;;;;;8.43;7.53;;;;;;;5.26;100.00;98997.27;1749833;82;21374;-67
2021/01/25 01:02:02;;;;;;;11.12;7.55;;;;;;;5.26;100.00;99006.30;1741768;82;21378;-67
2021/01/25 01:04:31;;;;;;;12.43;8.23;;;;;;;5.28;100.00;99000.61;1749887;82;21539;-67
2021/01/25 01:06:59;;;;;;;10.00;8.55;;;;;;;5.27;100.00;98996.36;1741648;82;21493;-66
2021/01/25 01:09:29;;;;;;;13.70;9.78;;;;;;;5.27;100.00;98995.06;1749762;82;48497;-66
2021/01/25 01:11:58;;;;;;;14.85;9.13;;;;;;;5.26;99.98;98994.69;1741692;82;21551;-66
2021/01/25 01:14:26;;;;;;;15.75;10.38;;;;;;;5.25;100.00;98990.89;1749893;82;21603;-67
2021/01/25 01:16:55;;;;;;;16.80;10.58;;;;;;;5.26;99.96;98989.98;1741590;82;21077;-67
2021/01/25 01:19:23;;;;;;;14.73;10.43;;;;;;;5.25;99.88;98996.05;1749320;82;21576;-66
2021/01/25 01:21:52;;;;;;;16.75;10.03;;;;;;;5.23;99.94;98996.13;1744324;82;21322;-66
2021/01/25 01:24:20;;;;;;;14.80;10.05;;;;;;;5.24;99.88;99002.97;1749314;82;21520;-66
2021/01/25 01:26:48;;;;;;;18.92;11.35;;;;;;;5.23;99.84;98999.17;1744278;81;21502;-65
2021/01/25 01:29:17;;;;;;;19.55;12.23;;;;;;;5.23;99.82;98999.17;1749298;82;21579;-65
2021/01/25 01:31:46;;;;;;;13.20;10.20;;;;;;;5.22;99.81;98990.59;1744338;82;21599;-66
2021/01/25 01:34:14;;;;;;;16.93;11.57;;;;;;;5.21;99.80;99004.86;1749458;82;22018;-66
2021/01/25 01:36:43;;;;;;;13.90;10.30;;;;;;;5.20;99.84;99001.45;1744219;82;21591;-66
2021/01/25 01:39:11;;;;;;;13.43;11.35;;;;;;;5.20;99.80;99001.94;1749398;82;21528;-66
2021/01/25 01:41:40;;;;;;;14.85;10.20;;;;;;;5.18;99.78;99004.59;1744282;82;21537;-66
2021/01/25 01:44:09;;;;;;;14.68;11.63;;;;;;;5.18;99.79;99006.34;1749363;82;21611;-67
2021/01/25 01:46:41;;;;;;;13.35;10.78;;;;;;;5.17;99.77;99001.63;1744276;82;21202;-66
2021/01/25 01:49:12;;;;;;;14.20;10.90;;;;;;;5.18;99.74;99012.33;1749421;82;21511;-66
2021/01/25 01:51:40;;;;;;;15.20;11.45;;;;;;;5.18;99.73;99001.18;1715625;82;22003;-66
2021/01/25 01:54:09;;;;;;;13.13;11.57;;;;;;;5.17;99.73;98999.05;1749467;82;21516;-66
2021/01/25 01:56:37;;;;;;;14.70;11.60;;;;;;;5.19;99.73;99002.84;1744452;82;21464;-66
2021/01/25 01:59:06;;;;;;;15.13;11.08;;;;;;;5.19;99.59;98998.98;1720381;82;22287;-67
2021/01/25 02:01:34;;;;;;;13.70;11.63;;;;;;;5.19;99.61;99005.42;1744408;82;21524;-65
2021/01/25 02:04:05;;;;;;;13.72;11.85;;;;;;;5.18;99.54;99002.47;1749525;82;20982;-66
2021/01/25 02:06:33;;;;;;;14.33;11.45;;;;;;;5.17;99.61;99005.50;1744382;82;20903;-66
2021/01/25 02:09:03;;;;;;;17.20;12.60;;;;;;;5.18;99.61;99008.47;1702828;81;20941;-65
2021/01/25 02:11:31;;;;;;;17.50;13.32;;;;;;;5.17;99.56;99003.37;1744153;82;21361;-65
2021/01/25 02:14:01;;;;;;;18.27;12.70;;;;;;;5.15;99.51;99004.75;1744100;82;21540;-65
2021/01/25 02:16:31;;;;;;;20.62;14.05;;;;;;;5.14;99.55;98997.91;1742165;82;21437;-66
2021/01/25 02:19:00;;;;;;;18.75;14.13;;;;;;;5.13;99.56;99001.86;1749449;82;21515;-66
2021/01/25 02:21:30;;;;;;;18.80;13.98;;;;;;;5.12;99.61;98995.03;1744451;82;21572;-66
2021/01/25 02:24:16;;;;;;;19.57;13.80;;;;;;;5.10;99.60;98996.39;1749564;82;22119;-65
2021/01/25 02:27:29;;;;;;;17.45;14.00;;;;;;;5.09;99.63;98997.31;1739811;81;21622;-66
2021/01/25 02:29:59;;;;;;;19.67;14.25;;;;;;;5.07;99.67;98993.14;1725631;82;21622;-66
2021/01/25 02:32:32;;;;;;;20.97;16.40;;;;;;;5.05;99.76;99002.70;1757058;81;21621;-66
2021/01/25 02:35:02;;;;;;;21.50;17.02;;;;;;;5.03;99.86;99007.48;1787825;78;21487;-66
2021/01/25 02:37:30;;;;;;;20.20;14.73;;;;;;;5.00;100.00;99013.24;1821465;78;21405;-66
2021/01/25 02:40:00;;;;;;;24.65;16.52;;;;;;;4.99;100.00;99012.86;1821485;78;21628;-65
2021/01/25 02:42:29;;;;;;;24.43;18.20;;;;;;;4.99;100.00;99009.83;1821474;78;21377;-65
2021/01/25 02:44:57;;;;;;;21.30;15.35;;;;;;;5.02;100.00;99015.30;1790511;78;21527;-65
2021/01/25 02:47:26;;;;;;;23.15;15.90;;;;;;;5.01;100.00;99016.20;1821637;78;21555;-66
2021/01/25 02:49:55;;;;;;;21.35;16.00;;;;;;;4.98;100.00;99018.48;1821513;78;22205;-66
2021/01/25 02:52:23;;;;;;;24.60;17.35;;;;;;;4.97;100.00;99013.39;1821469;78;21495;-66
2021/01/25 02:54:52;;;;;;;29.48;19.10;;;;;;;4.97;100.00;99015.52;1821615;78;21538;-66
2021/01/25 02:57:21;;;;;;;23.62;16.90;;;;;;;4.96;100.00;99012.55;1821452;78;21433;-66
2021/01/25 02:59:49;;;;;;;22.17;14.65;;;;;;;4.97;100.00;99010.81;1821552;78;21001;-66
2021/01/25 03:02:17;;;;;;;26.05;17.92;;;;;;;4.95;100.00;99008.30;1821491;78;21362;-65
2021/01/25 03:04:46;;;;;;;28.87;19.80;;;;;;;4.93;100.00;99013.16;1821536;78;20989;-65
2021/01/25 03:07:14;;;;;;;23.90;16.40;;;;;;;4.90;100.00;99009.44;1821591;78;21508;-66
2021/01/25 03:09:43;;;;;;;24.87;16.30;;;;;;;4.87;100.00;99022.48;1821524;78;21492;-66
2021/01/25 03:12:12;;;;;;;25.10;17.55;;;;;;;4.83;100.00;99016.64;1821527;77;20922;-66
2021/01/25 03:14:44;;;;;;;25.77;17.65;;;;;;;4.82;100.00;99021.42;1821492;78;22317;-66
2021/01/25 03:17:13;;;;;;;25.68;18.12;;;;;;;4.82;100.00;99020.58;1821535;78;21547;-66
2021/01/25 03:19:42;;;;;;;28.62;21.00;;;;;;;4.82;100.00;99022.70;1821596;78;21500;-66
2021/01/25 03:22:10;;;;;;;24.45;18.07;;;;;;;4.84;100.00;99022.18;1821410;78;21479;-67
2021/01/25 03:24:39;;;;;;;27.15;20.45;;;;;;;4.85;100.00;99029.47;1821536;78;21451;-67
2021/01/25 03:27:08;;;;;;;31.68;23.18;;;;;;;4.86;100.00;99034.55;1817583;78;22009;-66
2021/01/25 03:29:37;;;;;;;29.77;22.62;;;;;;;4.86;100.00;99030.67;1803739;79;21006;-66
2021/01/25 03:32:06;;;;;;;21.93;17.70;;;;;;;4.87;100.00;99022.48;1803787;79;21618;-67
2021/01/25 03:34:34;;;;;;;16.73;13.40;;;;;;;4.88;100.00;99020.29;1803722;79;22081;-66
2021/01/25 03:37:03;;;;;;;19.42;15.58;;;;;;;4.88;100.00;99017.70;1803755;79;21489;-66
2021/01/25 03:39:31;;;;;;;18.00;12.93;;;;;;;4.87;100.00;99022.48;1803772;79;22156;-66
2021/01/25 03:41:59;;;;;;;16.62;13.45;;;;;;;4.86;100.00;99021.65;1803736;79;21508;-66
2021/01/25 03:44:28;;;;;;;14.98;12.05;;;;;;;4.85;100.00;99018.69;1803754;79;21591;-66
2021/01/25 03:46:56;;;;;;;13.58;10.82;;;;;;;4.83;100.00;99024.38;1803718;79;21587;-67
2021/01/25 03:49:25;;;;;;;12.23;9.48;;;;;;;4.82;100.00;99018.00;1803852;79;21473;-67
2021/01/25 03:51:53;;;;;;;28.42;22.50;;;;;;;4.81;100.00;99015.88;1803791;79;22151;-66
2021/01/25 03:54:22;;;;;;;13.55;12.05;;;;;;;4.78;100.00;99019.09;1803720;79;21512;-67
2021/01/25 03:56:50;;;;;;;11.57;10.38;;;;;;;4.77;100.00;99014.84;1803696;79;21579;-66
2021/01/25 03:59:19;;;;;;;13.48;11.80;;;;;;;4.74;100.00;99013.25;1803813;79;21587;-66
2021/01/25 04:01:47;;;;;;;12.43;9.30;;;;;;;4.70;100.00;99013.02;1803759;79;21456;-66
2021/01/25 04:04:16;;;;;;;12.00;10.80;;;;;;;4.67;100.00;99010.13;1803832;79;22183;-66
2021/01/25 04:06:45;;;;;;;11.50;9.93;;;;;;;4.65;100.00;99010.66;1803682;79;21489;-66
2021/01/25 04:09:13;;;;;;;9.63;8.68;;;;;;;4.65;100.00;99008.53;1803754;79;21504;-66
2021/01/25 04:11:45;;;;;;;12.15;10.45;;;;;;;4.62;100.00;99006.09;1803663;79;20946;-66
2021/01/25 04:14:13;;;;;;;11.63;9.58;;;;;;;4.58;100.00;99004.12;1803782;79;21484;-66
2021/01/25 04:16:42;;;;;;;13.75;11.45;;;;;;;4.56;100.00;99001.23;1803779;79;22209;-67
2021/01/25 04:19:11;;;;;;;11.22;9.45;;;;;;;4.54;100.00;99000.47;1803618;79;21572;-66
2021/01/25 04:21:40;;;;;;;11.00;9.78;;;;;;;4.51;100.00;99002.73;1803821;79;21354;-66
2021/01/25 04:24:09;;;;;;;10.32;9.30;;;;;;;4.49;100.00;99003.27;1803652;79;21576;-66
2021/01/25 04:26:41;;;;;;;10.60;9.48;;;;;;;4.48;100.00;98997.73;1803825;79;21417;-66
2021/01/25 04:29:13;;;;;;;9.98;8.85;;;;;;;4.48;100.00;98992.57;1814535;78;21389;-66
2021/01/25 04:31:41;;;;;;;10.85;9.63;;;;;;;4.47;100.00;98996.51;1815624;79;20958;-66
2021/01/25 04:34:10;;;;;;;12.95;10.15;;;;;;;4.46;100.00;98994.38;1815686;79;20926;-66
2021/01/25 04:36:40;;;;;;;8.98;7.90;;;;;;;4.47;100.00;99004.24;1815630;79;20986;-67
2021/01/25 04:39:09;;;;;;;9.85;8.78;;;;;;;4.46;100.00;99002.58;1815731;79;21563;-67
2021/01/25 04:41:37;;;;;;;10.82;9.43;;;;;;;4.48;100.00;99005.91;1815747;79;22317;-67
2021/01/25 04:44:06;;;;;;;10.63;9.18;;;;;;;4.48;100.00;98995.15;1793329;79;21583;-66
2021/01/25 04:46:34;;;;;;;11.45;8.78;;;;;;;4.47;100.00;98993.48;1815689;79;21543;-66
2021/01/25 04:49:03;;;;;;;10.23;8.98;;;;;;;4.48;100.00;98995.15;1815661;79;21508;-66
2021/01/25 04:51:32;;;;;;;11.25;9.43;;;;;;;4.48;100.00;98990.00;1815757;79;21571;-66
2021/01/25 04:54:01;;;;;;;10.20;9.00;;;;;;;4.51;100.00;98998.03;1815647;79;21479;-66
2021/01/25 04:56:30;;;;;;;10.03;8.98;;;;;;;4.51;100.00;98992.88;1815645;79;21029;-66
2021/01/25 04:58:58;;;;;;;10.78;9.45;;;;;;;4.49;100.00;98990.38;1793579;79;21602;-66
2021/01/25 05:01:27;;;;;;;10.58;9.33;;;;;;;4.50;100.00;98990.76;1815601;79;21563;-66
2021/01/25 05:03:55;;;;;;;10.13;8.68;;;;;;;4.52;100.00;98986.81;1815692;79;21029;-66
2021/01/25 05:06:24;;;;;;;11.45;9.75;;;;;;;4.56;100.00;98984.48;1815725;79;22427;-66
2021/01/25 05:08:52;;;;;;;13.15;9.60;;;;;;;4.60;100.00;98986.00;1815587;77;21511;-66
2021/01/25 05:11:20;;;;;;;11.00;9.43;;;;;;;4.65;100.00;98984.03;1815603;79;21380;-67
2021/01/25 05:13:49;;;;;;;9.28;8.28;;;;;;;4.71;100.00;98985.48;1815622;79;21570;-66
2021/01/25 05:16:21;;;;;;;12.05;10.23;;;;;;;4.76;100.00;98986.09;1815767;79;21594;-66
2021/01/25 05:19:00;;;;;;;10.55;9.45;;;;;;;4.78;100.00;98981.70;1815664;79;21332;-66
2021/01/25 05:21:42;;;;;;;13.60;9.13;;;;;;;4.79;100.00;98983.37;1814975;79;21625;-66
2021/01/25 05:24:12;;;;;;;10.03;8.80;;;;;;;4.77;100.00;98982.16;1815603;79;21536;-66
2021/01/25 05:27:00;;;;;;;10.03;9.03;;;;;;;4.74;100.00;98978.89;1815543;79;20957;-66
2021/01/25 05:29:29;;;;;;;13.28;9.55;;;;;;;4.66;100.00;98972.81;1805142;78;21587;-67
2021/01/25 05:31:57;;;;;;;12.37;10.38;;;;;;;4.62;100.00;98977.73;1803728;79;21546;-67
2021/01/25 05:34:26;;;;;;;10.75;9.18;;;;;;;4.59;100.00;98972.27;1803628;79;21612;-66
2021/01/25 05:36:55;;;;;;;12.30;10.05;;;;;;;4.56;100.00;98974.16;1803632;79;21591;-67
2021/01/25 05:39:29;;;;;;;10.20;9.20;;;;;;;4.53;100.00;98979.01;1803558;79;21568;-66
2021/01/25 05:41:58;;;;;;;12.15;10.53;;;;;;;4.51;100.00;98980.83;1802997;79;21057;-66
2021/01/25 05:44:29;;;;;;;13.65;11.57;;;;;;;4.49;100.00;98983.09;1802822;79;21713;-66
2021/01/25 05:47:07;;;;;;;11.53;10.32;;;;;;;4.46;100.00;98984.08;1775660;79;21560;-65
2021/01/25 05:49:36;;;;;;;11.75;9.95;;;;;;;4.47;100.00;98986.20;1812836;77;21547;-66
2021/01/25 05:52:05;;;;;;;12.00;10.13;;;;;;;4.47;100.00;98987.48;1813097;77;21669;-66
2021/01/25 05:54:34;;;;;;;12.43;10.93;;;;;;;4.49;100.00;98988.25;1828644;78;20994;-65
2021/01/25 05:57:04;;;;;;;13.38;10.15;;;;;;;4.52;100.00;98991.52;1835512;77;22089;-66
2021/01/25 05:59:32;;;;;;;11.68;10.03;;;;;;;4.56;100.00;98990.47;1830789;77;20935;-66
2021/01/25 06:02:01;;;;;;;13.62;10.75;;;;;;;4.63;100.00;98990.55;1831333;77;21286;-65
2021/01/25 06:04:30;;;;;;;14.33;12.15;;;;;;;4.71;100.00;98998.38;1836551;77;21021;-67
2021/01/25 06:07:12;;;;;;;14.40;11.10;;;;;;;4.72;100.00;99000.88;1805362;77;21651;-65
2021/01/25 06:09:55;;;;;;;16.97;12.82;;;;;;;4.72;100.00;99001.34;1833878;77;21343;-69
2021/01/25 06:12:39;;;;;;;14.20;11.22;;;;;;;4.71;100.00;99002.24;1826471;77;21081;-66
2021/01/25 06:15:22;;;;;;;13.98;10.50;;;;;;;4.69;100.00;99003.16;1830362;77;22073;-66
2021/01/25 06:17:50;;;;;;;15.48;12.15;;;;;;;4.68;100.00;99004.06;1824173;77;21044;-68
2021/01/25 06:20:20;;;;;;;15.55;12.30;;;;;;;4.69;100.00;99004.89;1833823;77;20990;-68
2021/01/25 06:22:48;;;;;;;15.80;11.00;;;;;;;4.67;100.00;99010.58;1803334;77;21193;-71
2021/01/25 06:25:18;;;;;;;15.45;11.30;;;;;;;4.65;100.00;99005.95;1839797;77;21606;-68
2021/01/25 06:27:47;;;;;;;16.15;11.90;;;;;;;4.63;100.00;99012.92;1834867;76;21040;-67
2021/01/25 06:30:17;;;;;;;13.03;10.45;;;;;;;4.62;100.00;99009.96;1781875;79;21246;-67
2021/01/25 06:32:46;;;;;;;12.23;10.82;;;;;;;4.61;100.00;99014.73;1739932;79;21137;-68
2021/01/25 06:35:16;;;;;;;12.33;10.72;;;;;;;4.60;100.00;99022.09;1813515;78;22169;-67
2021/01/25 06:37:52;;;;;;;16.05;12.10;;;;;;;4.61;100.00;99020.73;1816939;78;21110;-68
2021/01/25 06:40:27;;;;;;;11.57;10.32;;;;;;;4.64;100.00;99019.30;1804839;78;21621;-69
2021/01/25 06:42:56;;;;;;;14.53;12.43;;;;;;;4.67;100.00;99022.19;1792192;78;21049;-68
2021/01/25 06:45:25;;;;;;;13.28;11.28;;;;;;;4.73;100.00;99034.78;1807988;78;21065;-70
2021/01/25 06:47:56;;;;;;;12.03;10.70;;;;;;;4.77;100.00;99036.31;1771147;79;21267;-70
2021/01/25 06:50:25;;;;;;;12.07;10.60;;;;;;;4.79;100.00;99033.20;1802902;79;21198;-69
2021/01/25 06:52:53;;;;;;;12.33;10.85;;;;;;;4.83;100.00;99037.27;1829294;77;21033;-70
2021/01/25 06:55:23;;;;;;;14.40;11.08;;;;;;;4.87;100.00;99032.35;1855686;77;21065;-64
2021/01/25 06:57:51;;;;;;;15.85;11.80;;;;;;;4.91;100.00;99036.91;1818302;77;21239;-67
2021/01/25 07:00:20;;;;;;;12.80;11.33;;;;;;;4.93;100.00;99041.08;1779824;79;21077;-69
2021/01/25 07:03:06;;;;;;;14.28;11.93;;;;;;;4.96;100.00;99039.64;1841699;76;21005;-67
2021/01/25 07:05:36;;;;;;;11.80;10.45;;;;;;;4.99;100.00;99045.11;1844899;76;21627;-69
2021/01/25 07:08:25;;;;;;;17.90;14.85;;;;;;;5.00;100.00;99043.74;1843407;77;21122;-69
2021/01/25 07:11:01;;;;;;;17.05;13.90;;;;;;;4.99;100.00;99052.39;1843455;77;21104;-68
2021/01/25 07:13:32;;;;;;;13.45;11.75;;;;;;;4.99;100.00;99043.82;1770315;79;21205;-69
2021/01/25 07:16:00;;;;;;;12.10;10.80;;;;;;;5.00;100.00;99041.62;1801402;79;21048;-67
2021/01/25 07:18:29;;;;;;;13.22;11.18;;;;;;;5.02;100.00;99040.64;1786175;79;21570;-68
2021/01/25 07:21:00;;;;;;;12.13;10.23;;;;;;;5.03;100.00;99033.28;1786247;79;21587;-65
2021/01/25 07:23:28;;;;;;;11.33;10.13;;;;;;;5.03;100.00;99030.70;1783500;79;21122;-67
2021/01/25 07:26:00;;;;;;;12.63;10.23;;;;;;;5.04;100.00;99031.53;1784102;79;22361;-65
2021/01/25 07:28:33;;;;;;;19.62;14.05;;;;;;;5.02;100.00;99034.64;1801171;78;20963;-68
2021/01/25 07:31:03;;;;;;;16.82;13.25;;;;;;;5.02;100.00;99039.34;1777205;78;21030;-69
2021/01/25 07:33:31;;;;;;;16.23;12.47;;;;;;;5.03;100.00;99047.47;1778133;79;21017;-67
2021/01/25 07:36:00;;;;;;;19.82;14.73;;;;;;;5.03;100.00;99039.73;1795428;79;21515;-68
2021/01/25 07:38:29;;;;;;;12.70;10.98;;;;;;;5.03;100.00;99044.89;1800176;79;21164;-66
2021/01/25 07:40:58;;;;;;;15.98;12.28;;;;;;;5.05;100.00;99033.20;1814020;78;21626;-67
2021/01/25 07:43:29;;;;;;;11.18;8.78;;;;;;;5.05;100.00;99029.33;1779638;79;21057;-66
2021/01/25 07:46:09;;;;;;;12.75;10.98;;;;;;;5.07;100.00;99026.22;1823203;78;21622;-66
2021/01/25 07:48:52;;;;;;;15.55;12.80;;;;;;;5.06;100.00;99018.55;1797273;78;21077;-66
2021/01/25 07:51:25;;;;;;;12.95;11.57;;;;;;;5.05;100.00;99024.17;1765724;79;21642;-67
2021/01/25 07:53:54;;;;;;;14.30;12.10;;;;;;;5.05;100.00;99023.34;1842725;76;21714;-67
2021/01/25 07:56:24;;;;;;;16.75;13.03;;;;;;;5.05;100.00;99019.01;1834803;76;20986;-66
2021/01/25 07:59:14;;;;;;;14.18;12.40;;;;;;;5.05;100.00;99010.44;1840275;76;21041;-68
2021/01/25 08:02:01;;;;;;;14.10;12.18;;;;;;;5.02;100.00;99003.23;1840068;76;21705;-68
2021/01/25 08:04:33;;;;;;;17.32;14.00;;;;;;;5.00;100.00;99010.66;1848886;76;21373;-69
2021/01/25 08:07:02;;;;;;;17.77;13.38;;;;;;;4.96;100.00;99011.27;1773470;79;21624;-67
2021/01/25 08:09:31;;;;;;;19.82;14.78;;;;;;;4.95;100.00;99006.18;1807109;78;21483;-67
2021/01/25 08:12:00;;;;;;;15.83;13.10;;;;;;;4.96;100.00;98997.53;1769171;79;21109;-68
2021/01/25 08:14:37;;;;;;;21.95;15.38;;;;;;;4.95;100.00;99000.57;1765616;78;21579;-66
2021/01/25 08:17:14;;;;;;;24.55;18.57;;;;;;;4.97;100.00;99006.94;1782590;78;21250;-69
2021/01/25 08:20:13;;;;;;;23.18;17.17;;;;;;;4.96;100.00;99014.30;1764997;79;21610;-64
2021/01/25 08:22:58;;;;;;;24.82;18.02;;;;;;;4.98;100.00;99013.31;1767379;79;21657;-65
2021/01/25 08:25:29;;;;;;;27.22;17.98;;;;;;;5.03;100.00;99016.96;1762594;79;21155;-66
2021/01/25 08:28:14;;;;;;;24.10;17.67;;;;;;;5.05;100.00;99020.75;1746707;79;21067;-69
2021/01/25 08:30:48;;;;;;;21.52;16.37;;;;;;;5.08;100.00;99025.77;1755162;80;21229;-70
2021/01/25 08:33:34;;;;;;;27.60;20.23;;;;;;;5.11;100.00;99026.45;1766852;79;21075;-69
2021/01/25 08:36:07;;;;;;;25.75;20.27;;;;;;;5.10;100.00;99027.36;1774955;79;21473;-69
2021/01/25 08:38:41;;;;;;;28.83;20.30;;;;;;;5.13;100.00;99019.47;1800844;78;20941;-68
2021/01/25 08:41:28;;;;;;;31.12;21.85;;;;;;;5.17;100.00;99018.86;1792781;78;21140;-70
2021/01/25 08:44:01;;;;;;;24.02;17.05;;;;;;;5.20;100.00;99025.97;1842289;76;22096;-71
2021/01/25 08:46:32;;;;;;;28.55;18.52;;;;;;;5.22;100.00;99020.27;1831826;76;21061;-68
2021/01/25 08:49:11;;;;;;;27.20;18.50;;;;;;;5.25;100.00;99016.70;1774390;80;21024;-68
2021/01/25 08:51:40;;;;;;;27.42;19.57;;;;;;;5.29;100.00;99008.73;1777767;80;20982;-70
2021/01/25 08:54:23;;;;;;;29.45;20.00;;;;;;;5.36;100.00;99006.67;1758857;79;21073;-71
2021/01/25 08:56:52;;;;;;;29.20;20.43;;;;;;;5.40;100.00;99013.81;1762659;80;21817;-67
2021/01/25 08:59:39;;;;;;;36.70;23.07;;;;;;;5.44;100.00;99006.28;1785444;78;21670;-69
2021/01/25 09:02:21;;;;;;;40.08;22.62;;;;;;;5.44;100.00;99009.70;1785214;79;21117;-67
2021/01/25 09:04:51;;;;;;;37.17;21.55;;;;;;;5.44;100.00;99012.28;1821040;76;20986;-65
2021/01/25 09:07:23;;;;;;;38.88;23.60;;;;;;;5.46;100.00;99013.50;1838608;76;20994;-68
2021/01/25 09:09:51;;;;;;;41.73;24.47;;;;;;;5.48;100.00;99015.55;1838028;76;21180;-66
2021/01/25 09:12:20;;;;;;;44.23;24.47;;;;;;;5.48;100.00;99010.38;1844870;76;21088;-68
2021/01/25 09:14:49;;;;;;;44.35;23.77;;;;;;;5.49;100.00;99007.72;1874757;76;21057;-66
2021/01/25 09:17:17;;;;;;;37.95;23.25;;;;;;;5.52;100.00;99003.69;1779639;80;21638;-66
2021/01/25 09:19:46;;;;;;;37.10;23.73;;;;;;;5.57;100.00;99009.45;1774589;79;21613;-67
2021/01/25 09:22:14;;;;;;;34.75;22.35;;;;;;;5.59;99.78;99005.05;1794851;78;22825;-67
2021/01/25 09:24:54;;;;;;;34.15;22.85;;;;;;;5.63;99.68;99007.81;1777865;79;21078;-69
2021/01/25 09:27:22;;;;;;;34.95;22.20;;;;;;;5.67;99.22;99005.91;1779896;78;21734;-68
2021/01/25 09:29:51;;;;;;;30.72;20.95;;;;;;;5.70;99.04;98990.25;1808038;78;21634;-69
2021/01/25 09:32:20;;;;;;;27.93;19.12;;;;;;;5.73;98.75;98993.97;1804155;78;21188;-68
2021/01/25 09:34:50;;;;;;;33.88;22.48;;;;;;;5.74;98.21;98984.02;1766957;79;21009;-68
2021/01/25 09:37:18;;;;;;;34.58;21.05;;;;;;;5.74;97.97;98990.47;1776447;79;21045;-70
2021/01/25 09:39:47;;;;;;;29.37;21.52;;;;;;;5.77;97.69;98977.39;1751712;79;21664;-67
2021/01/25 09:42:16;;;;;;;33.28;22.77;;;;;;;5.79;97.55;98977.31;1745887;79;22190;-68
2021/01/25 09:44:44;;;;;;;32.60;21.50;;;;;;;5.77;97.33;98976.56;1795618;78;21051;-71
2021/01/25 09:47:12;;;;;;;38.08;23.18;;;;;;;5.76;97.29;98964.10;1781820;79;21916;-71
2021/01/25 09:49:43;;;;;;;31.37;22.10;;;;;;;5.76;96.97;98956.36;1772170;79;20983;-70
2021/01/25 09:52:11;;;;;;;35.52;21.57;;;;;;;5.73;96.78;98949.22;1754425;80;21023;-72
2021/01/25 09:54:40;;;;;;;37.05;23.92;;;;;;;5.73;96.81;98958.27;1766713;80;21003;-69
2021/01/25 09:57:09;;;;;;;36.35;22.02;;;;;;;5.73;96.78;98958.27;1794952;79;22330;-71
2021/01/25 09:59:37;;;;;;;34.38;22.27;;;;;;;5.74;96.80;98953.02;1779322;78;21846;-69
2021/01/25 10:02:06;;;;;;;37.10;22.17;;;;;;;5.75;96.54;98965.02;1776082;79;21010;-68
2021/01/25 10:04:34;;;;;;;27.42;20.60;;;;;;;5.76;96.67;98957.64;1778902;79;21045;-68
2021/01/25 10:07:03;;;;;;;32.03;22.58;;;;;;;5.78;96.55;98949.36;1782154;78;21038;-69
2021/01/25 10:09:31;;;;;;;29.90;20.50;;;;;;;5.80;96.22;98937.66;1818867;78;21610;-69
2021/01/25 10:11:59;;;;;;;29.15;19.45;;;;;;;5.81;96.13;98944.48;1818305;78;21261;-67
2021/01/25 10:14:29;;;;;;;31.52;21.37;;;;;;;5.79;95.93;98941.98;1806082;79;21107;-67
2021/01/25 10:16:58;;;;;;;33.10;21.85;;;;;;;5.80;96.09;98935.91;1838991;78;21009;-68
2021/01/25 10:19:26;;;;;;;28.85;20.12;;;;;;;5.82;95.94;98933.23;1806165;78;21649;-68
2021/01/25 10:21:55;;;;;;;30.10;19.82;;;;;;;5.81;95.96;98927.70;1805688;79;21057;-69
2021/01/25 10:24:23;;;;;;;25.15;18.05;;;;;;;5.78;96.10;98927.40;1805370;79;21186;-67
2021/01/25 10:26:51;;;;;;;29.77;18.85;;;;;;;5.78;96.17;98923.53;1776476;78;21033;-68
2021/01/25 10:29:20;;;;;;;24.60;16.90;;;;;;;5.76;96.34;98920.66;1740950;81;21668;-67
2021/01/25 10:31:48;;;;;;;31.20;20.30;;;;;;;5.74;96.65;98918.15;1775292;79;22121;-68
2021/01/25 10:34:17;;;;;;;27.02;17.65;;;;;;;5.73;96.80;98918.23;1775290;80;21612;-68
2021/01/25 10:36:46;;;;;;;26.12;17.32;;;;;;;5.73;97.06;98920.81;1779624;80;22037;-67
2021/01/25 10:39:14;;;;;;;30.88;18.77;;;;;;;5.71;97.23;98906.69;1791009;78;21013;-67
2021/01/25 10:41:42;;;;;;;25.52;17.82;;;;;;;5.70;97.39;98902.44;1773183;79;20987;-67
2021/01/25 10:44:15;;;;;;;33.98;17.67;;;;;;;5.69;97.50;98893.86;1773739;78;21169;-68
2021/01/25 10:46:43;;;;;;;22.67;16.87;;;;;;;5.68;97.50;98901.69;1767668;79;21494;-69
2021/01/25 10:49:11;;;;;;;22.00;15.32;;;;;;;5.63;97.56;98904.52;1787050;79;21196;-68
2021/01/25 10:51:40;;;;;;;21.95;16.70;;;;;;;5.62;97.65;98895.56;1808013;78;21066;-67
2021/01/25 10:54:09;;;;;;;21.75;15.32;;;;;;;5.62;97.67;98891.69;1754758;80;21014;-68
2021/01/25 10:56:37;;;;;;;30.40;19.20;;;;;;;5.63;97.68;98892.90;1772886;79;21063;-67
2021/01/25 10:59:06;;;;;;;30.02;19.10;;;;;;;5.64;97.38;98886.81;1791874;79;21487;-70
2021/01/25 11:01:34;;;;;;;26.75;17.85;;;;;;;5.63;97.38;98884.31;1777929;79;22332;-67
2021/01/25 11:04:04;;;;;;;25.45;18.48;;;;;;;5.59;97.20;98882.39;1791277;78;21620;-69
2021/01/25 11:06:35;;;;;;;29.95;18.02;;;;;;;5.60;97.25;98878.02;1797973;78;21002;-67
2021/01/25 11:09:04;;;;;;;23.65;16.42;;;;;;;5.63;97.10;98869.66;1770736;79;21662;-68
2021/01/25 11:11:33;;;;;;;21.45;15.75;;;;;;;5.66;96.86;98868.66;1797862;78;21056;-67
2021/01/25 11:14:01;;;;;;;24.67;16.23;;;;;;;5.67;96.62;98868.58;1773120;80;22138;-67
2021/01/25 11:16:32;;;;;;;21.20;16.05;;;;;;;5.68;96.53;98857.33;1795749;79;21602;-67
2021/01/25 11:19:01;;;;;;;22.58;15.98;;;;;;;5.69;96.38;98856.41;1782484;79;21160;-67
2021/01/25 11:21:29;;;;;;;20.48;15.45;;;;;;;5.69;96.31;98852.99;1804919;78;21082;-67
2021/01/25 11:23:58;;;;;;;26.30;17.02;;;;;;;5.67;96.32;98844.04;1787532;78;21194;-67
2021/01/25 11:26:27;;;;;;;23.80;17.42;;;;;;;5.66;96.39;98835.09;1762381;78;21187;-65
2021/01/25 11:28:56;;;;;;;22.62;17.05;;;;;;;5.67;96.32;98839.33;1778975;80;21863;-67
2021/01/25 11:31:24;;;;;;;20.40;15.10;;;;;;;5.64;96.36;98832.59;1773227;79;21575;-66
2021/01/25 11:33:53;;;;;;;22.80;17.10;;;;;;;5.63;96.28;98833.50;1757000;81;21774;-66
2021/01/25 11:36:22;;;;;;;24.20;17.32;;;;;;;5.67;96.07;98831.59;1767313;80;21557;-66
2021/01/25 11:38:50;;;;;;;24.27;17.37;;;;;;;5.65;95.92;98826.50;1803758;78;21691;-66